Weather History for Dyersburg, TN

Change the Weather History Date:

Wednesday, February 12, 2014

  Actual Average Record
Temperature  
Mean Temperature 27 °F -  
Max Temperature 35 °F 49 °F 60 °F (2005)
Min Temperature 19 °F 33 °F 19 °F (2014)
Degree Days  
Heating Degree Days 38    
Moisture  
Dew Point 12 °F    
Average Humidity 56    
Maximum Humidity 69    
Minimum Humidity 44    
Precipitation  
Precipitation 0.00 in - - ()
Sea Level Pressure  
Sea Level Pressure 30.12 in    
Wind  
Wind Speed 7 mph (NNE)    
Max Wind Speed 10 mph    
Max Gust Speed -    
Visibility 10 miles    
Events      
Averages and records for this station are not official NWS values.
T = Trace of Precipitation, MM = Missing Value Source: NWS Daily Summary

Daily Weather History Graph

Daily Weather History Graph

Search for Another Location

Airport:

Trip Planner

Search our weather history database for the weather conditions in past years. The results will help you decide how hot, cold, wet, or windy it might be!

Date:

Astronomy

Feb. 12, 2014 Rise Set
Actual Time 6:48 AM CST 5:36 PM CST
Civil Twilight 6:21 AM CST 6:02 PM CST
Nautical Twilight 5:51 AM CST 6:32 PM CST
Astronomical Twilight 5:21 AM CST 7:02 PM CST
Moon 3:51 PM CST (2/12) 5:03 AM CST (2/12)
Length of Visible Light 11h 40m
Length of Day
10h 48m
Waxing Gibbous, 95% of the Moon is Illuminated
Feb 12
Waxing Gibbous
Feb 14
Full
Feb 22
Last Quarter
Mar 1
New
Mar 8
First Quarter

Hourly Weather History & Observations

Time (CST) Temp. Windchill Dew Point Humidity Pressure Visibility Wind Dir Wind Speed Gust Speed Precip Events Conditions
12:15 AM 21.2 °F 10.9 °F 8.6 °F 58% 30.29 in 10.0 mi NNE 9.2 mph - N/A   Clear
12:35 AM 21.2 °F 10.1 °F 8.6 °F 58% 30.28 in 10.0 mi NE 10.4 mph - N/A   Clear
12:55 AM 21.2 °F 10.9 °F 8.6 °F 58% 30.27 in 10.0 mi NE 9.2 mph - N/A   Clear
1:15 AM 21.2 °F 10.9 °F 6.8 °F 54% 30.26 in 10.0 mi NE 9.2 mph - N/A   Clear
1:35 AM 19.4 °F 9.5 °F 6.8 °F 58% 30.25 in 10.0 mi NE 8.1 mph - N/A   Clear
1:55 AM 19.4 °F 7.9 °F 6.8 °F 58% 30.25 in 10.0 mi NNE 10.4 mph - N/A   Clear
2:15 AM 19.4 °F 10.4 °F 6.8 °F 58% 30.25 in 10.0 mi NE 6.9 mph - N/A   Clear
2:35 AM 19.4 °F 9.5 °F 6.8 °F 58% 30.24 in 10.0 mi NNE 8.1 mph - N/A   Clear
2:55 AM 19.4 °F 8.6 °F 6.8 °F 58% 30.23 in 10.0 mi NE 9.2 mph - N/A   Partly Cloudy
3:15 AM 19.4 °F 7.9 °F 6.8 °F 58% 30.23 in 10.0 mi NNE 10.4 mph - N/A   Scattered Clouds
3:35 AM 19.4 °F 8.6 °F 6.8 °F 58% 30.22 in 10.0 mi NE 9.2 mph - N/A   Scattered Clouds
3:55 AM 19.4 °F 10.4 °F 6.8 °F 58% 30.22 in 10.0 mi ENE 6.9 mph - N/A   Mostly Cloudy
4:15 AM 19.4 °F 8.6 °F 6.8 °F 58% 30.21 in 10.0 mi NE 9.2 mph - N/A   Overcast
4:35 AM 19.4 °F 9.5 °F 6.8 °F 58% 30.19 in 10.0 mi ENE 8.1 mph - N/A   Mostly Cloudy
4:55 AM 19.4 °F 9.5 °F 6.8 °F 58% 30.18 in 10.0 mi NE 8.1 mph - N/A   Mostly Cloudy
5:15 AM 19.4 °F 11.5 °F 6.8 °F 58% 30.19 in 10.0 mi NE 5.8 mph - N/A   Overcast
5:35 AM 19.4 °F 10.4 °F 6.8 °F 58% 30.19 in 10.0 mi NE 6.9 mph - N/A   Overcast
5:55 AM 19.4 °F 11.5 °F 6.8 °F 58% 30.19 in 10.0 mi NE 5.8 mph - N/A   Mostly Cloudy
6:15 AM 19.4 °F 11.5 °F 6.8 °F 58% 30.18 in 10.0 mi NE 5.8 mph - N/A   Mostly Cloudy
6:35 AM 19.4 °F 11.5 °F 6.8 °F 58% 30.18 in 10.0 mi NNE 5.8 mph - N/A   Partly Cloudy
6:55 AM 19.4 °F 9.5 °F 8.6 °F 63% 30.19 in 10.0 mi North 8.1 mph - N/A   Clear
7:15 AM 19.4 °F 10.4 °F 8.6 °F 63% 30.20 in 10.0 mi North 6.9 mph - N/A   Clear
7:35 AM 19.4 °F 10.4 °F 6.8 °F 58% 30.19 in 10.0 mi NE 6.9 mph - N/A   Clear
7:55 AM 21.2 °F 12.6 °F 8.6 °F 58% 30.20 in 10.0 mi NNE 6.9 mph - N/A   Partly Cloudy
8:15 AM 21.2 °F 11.7 °F 8.6 °F 58% 30.20 in 10.0 mi NE 8.1 mph - N/A   Partly Cloudy
8:35 AM 21.2 °F 11.7 °F 8.6 °F 58% 30.20 in 10.0 mi NNE 8.1 mph - N/A   Clear
8:55 AM 21.2 °F 11.7 °F 8.6 °F 58% 30.20 in 10.0 mi NNE 8.1 mph - N/A   Mostly Cloudy
9:15 AM 23.0 °F 17.0 °F 8.6 °F 54% 30.19 in 10.0 mi NNE 4.6 mph - N/A   Overcast
9:35 AM 23.0 °F 15.8 °F 10.4 °F 59% 30.18 in 10.0 mi NNE 5.8 mph - N/A   Overcast
9:55 AM 24.8 °F 16.9 °F 10.4 °F 54% 30.17 in 10.0 mi NNE 6.9 mph - N/A   Overcast
10:15 AM 24.8 °F 19.1 °F 10.4 °F 54% 30.17 in 10.0 mi NE 4.6 mph - N/A   Overcast
10:35 AM 26.6 °F 20.0 °F 10.4 °F 51% 30.16 in 10.0 mi NE 5.8 mph - N/A   Overcast
10:55 AM 26.6 °F 20.0 °F 12.2 °F 55% 30.16 in 10.0 mi NE 5.8 mph - N/A   Overcast
11:15 AM 26.6 °F 21.2 °F 12.2 °F 55% 30.15 in 10.0 mi NNE 4.6 mph - N/A   Overcast
11:35 AM 28.4 °F 23.3 °F 12.2 °F 51% 30.14 in 10.0 mi NNE 4.6 mph - N/A   Overcast
11:55 AM 28.4 °F 23.3 °F 12.2 °F 51% 30.13 in 10.0 mi North 4.6 mph - N/A   Overcast
12:15 PM 28.4 °F 21.2 °F 12.2 °F 51% 30.12 in 10.0 mi NNW 6.9 mph - N/A   Overcast
12:35 PM 28.4 °F 22.2 °F 12.2 °F 51% 30.10 in 10.0 mi NNW 5.8 mph - N/A   Overcast
12:55 PM 30.2 °F 24.3 °F 12.2 °F 47% 30.09 in 10.0 mi North 5.8 mph - N/A   Overcast
1:15 PM 30.2 °F 24.3 °F 12.2 °F 47% 30.08 in 10.0 mi North 5.8 mph - N/A   Overcast
1:35 PM 30.2 °F 24.3 °F 14.0 °F 51% 30.06 in 10.0 mi NNW 5.8 mph - N/A   Overcast
1:55 PM 30.2 °F 24.3 °F 14.0 °F 51% 30.05 in 10.0 mi NNW 5.8 mph - N/A   Overcast
2:15 PM 32.0 °F 26.4 °F 15.8 °F 51% 30.04 in 10.0 mi NW 5.8 mph - N/A   Overcast
2:35 PM 33.8 °F 27.7 °F 15.8 °F 48% 30.03 in 10.0 mi North 6.9 mph - N/A   Overcast
2:55 PM 33.8 °F - 15.8 °F 48% 30.03 in 10.0 mi Calm Calm - N/A   Overcast
3:15 PM 33.8 °F 30.8 °F 15.8 °F 48% 30.02 in 10.0 mi North 3.5 mph - N/A   Overcast
3:35 PM 33.8 °F 28.6 °F 15.8 °F 48% 30.02 in 10.0 mi NNW 5.8 mph - N/A   Overcast
3:55 PM 33.8 °F 29.6 °F 15.8 °F 48% 30.02 in 10.0 mi NNW 4.6 mph - N/A   Overcast
4:15 PM 33.8 °F 29.6 °F 15.8 °F 48% 30.02 in 10.0 mi NNW 4.6 mph - N/A   Overcast
4:35 PM 35.6 °F 31.7 °F 15.8 °F 44% 30.02 in 10.0 mi NNW 4.6 mph - N/A   Overcast
4:55 PM 33.8 °F 30.8 °F 17.6 °F 52% 30.02 in 10.0 mi NNW 3.5 mph - N/A   Overcast
5:15 PM 33.8 °F - 17.6 °F 52% 30.02 in 10.0 mi Calm Calm - N/A   Overcast
5:35 PM 33.8 °F - 17.6 °F 52% 30.02 in 10.0 mi Calm Calm - N/A   Overcast
5:55 PM 33.8 °F - 17.6 °F 52% 30.02 in 10.0 mi Calm Calm - N/A   Overcast
6:15 PM 32.0 °F - 17.6 °F 55% 30.02 in 10.0 mi Calm Calm - N/A   Overcast
6:35 PM 30.2 °F - 17.6 °F 60% 30.03 in 10.0 mi Calm Calm - N/A   Scattered Clouds
6:55 PM 30.2 °F - 17.6 °F 60% 30.03 in 10.0 mi Calm Calm - N/A   Clear
7:15 PM 28.4 °F 23.3 °F 17.6 °F 64% 30.04 in 10.0 mi WNW 4.6 mph - N/A   Clear
7:35 PM 30.2 °F 25.4 °F 17.6 °F 60% 30.04 in 10.0 mi WNW 4.6 mph - N/A   Scattered Clouds
7:55 PM 30.2 °F 24.3 °F 17.6 °F 60% 30.04 in 10.0 mi NW 5.8 mph - N/A   Partly Cloudy
8:15 PM 30.2 °F 25.4 °F 15.8 °F 55% 30.04 in 10.0 mi NW 4.6 mph - N/A   Clear
8:35 PM 28.4 °F 24.6 °F 15.8 °F 59% 30.04 in 10.0 mi WNW 3.5 mph - N/A   Clear
8:55 PM 28.4 °F - 15.8 °F 59% 30.04 in 10.0 mi Calm Calm - N/A   Clear
9:15 PM 26.6 °F - 15.8 °F 64% 30.04 in 10.0 mi Calm Calm - N/A   Clear
9:35 PM 26.6 °F 21.2 °F 15.8 °F 64% 30.04 in 10.0 mi WNW 4.6 mph - N/A   Clear
9:55 PM 26.6 °F - 14.0 °F 59% 30.03 in 10.0 mi Calm Calm - N/A   Clear
10:15 PM 26.6 °F - 15.8 °F 64% 30.02 in 10.0 mi Calm Calm - N/A   Clear
10:35 PM 26.6 °F - 15.8 °F 64% 30.01 in 10.0 mi Calm Calm - N/A   Clear
10:55 PM 24.8 °F - 14.0 °F 64% 30.01 in 10.0 mi Calm Calm - N/A   Clear
11:15 PM 24.8 °F - 14.0 °F 64% 30.02 in 10.0 mi Calm Calm - N/A   Clear
11:35 PM 24.8 °F - 14.0 °F 64% 30.02 in 10.0 mi Calm Calm - N/A   Clear
11:55 PM 24.8 °F - 15.8 °F 69% 30.02 in 10.0 mi Calm Calm - N/A   Clear